Lunteren, Netherlands
Current Conditions -  °F | °C
As of 11:55 AM on Saturday 25 Oct 2014 (Local Time) from EHDL Reporting Station
Haze Haze  
Wind Chill: 57°   Ceiling: 1300
Heat Index: 57°   Visibility: 2.6mi
Dew Point: 55°   Wind: 7mph
Humidity: 94%   Direction: 230°SW
Pressure: 30.06"   Gusts: NA
Location:  52.09°N, 5.62°E
Report Text: EHDL 250955Z AUTO 23006KT 4200 BR SCT005 SCT010 BKN013 14/13 Q1018 YLO
Loading
Personal Weather Stations






























Interactive Weather Map
Tropical Storm Tracking
New forecast layout! Learn more

10-Day Weather Forecast

Advertisements
Track Severe Weather on mobile